Karymskoye, Russia
Current Conditions -  °F | °C
As of 1:30 PM on Wednesday 22 Oct 2014 (Local Time) from UIAA Reporting Station
Broken Clouds Broken Clouds  
Wind Chill: 28°   Ceiling: 20000
Heat Index: 28°   Visibility: 6mi
Dew Point: 14°   Wind: 2mph
Humidity: 55%   Direction: NA
Pressure: 29.8"   Gusts: NA
Location:  51.62°N, 114.35°E
Report Text: UIAA 220430Z VRB01MPS 9999 SCT100 BKN200 M02/M10 Q1009 NOSIGRMK QFE698 29CLRD70
Loading
Personal Weather Stations






























Interactive Weather Map
Tropical Storm Tracking
New forecast layout! Learn more

10-Day Weather Forecast

Advertisements
Track Severe Weather on mobile